Naval Weapons Station, Virginia
Current Conditions -  °F | °C
As of 7:54 PM on Sunday 23 Nov 2014 (Local Time) from KPHF Reporting Station
Overcast Overcast  
Wind Chill: 59°   Ceiling: 4400
Heat Index: 59°   Visibility: 10mi
Dew Point: 54°   Wind: 7mph
Humidity: 83%   Direction: 120°ESE
Pressure: 30"   Gusts: NA
Location:  37.2136°N, 76.4873°W
Report Text: KPHF 240054Z 12006KT 10SM SCT037 OVC044 15/12 A3000 RMK AO2 SLP156 T01500122 $
Loading
Personal Weather Stations






























Interactive Weather Map New forecast layout! Learn more

10-Day Weather Forecast

Advertisements
Track Severe Weather on mobile